createdAt,value
2019-05-02T00:00:41.224Z,7.94
2019-05-02T00:01:41.245Z,8.00
2019-05-02T00:02:41.212Z,7.94
2019-05-02T00:03:42.894Z,7.93
2019-05-02T00:04:41.209Z,7.93
2019-05-02T00:05:41.206Z,7.89
2019-05-02T00:06:42.921Z,7.84
2019-05-02T00:07:41.204Z,7.81
2019-05-02T00:08:41.197Z,7.89
2019-05-02T00:09:47.768Z,7.85
2019-05-02T00:10:41.189Z,7.84
2019-05-02T00:11:41.221Z,7.84
2019-05-02T00:12:41.190Z,7.85
2019-05-02T00:13:41.182Z,7.84
2019-05-02T00:14:41.186Z,7.81
2019-05-02T00:15:41.178Z,7.81
2019-05-02T00:16:45.174Z,7.84
2019-05-02T00:17:41.207Z,7.78
2019-05-02T00:18:41.179Z,7.75
2019-05-02T00:19:45.140Z,7.71
2019-05-02T00:20:41.166Z,7.67
2019-05-02T00:21:43.127Z,7.85
2019-05-02T00:22:41.187Z,7.81
2019-05-02T00:23:41.159Z,7.85
2019-05-02T00:24:41.183Z,7.77
2019-05-02T00:25:41.159Z,7.79
2019-05-02T00:26:41.154Z,7.82
2019-05-02T00:27:41.175Z,7.82
2019-05-02T00:28:43.002Z,7.84
2019-05-02T00:29:41.135Z,7.81
2019-05-02T00:30:41.141Z,7.78
2019-05-02T00:31:41.952Z,7.82
2019-05-02T00:32:41.165Z,7.81
2019-05-02T00:33:41.133Z,7.78
2019-05-02T00:34:41.128Z,7.77
2019-05-02T00:35:45.905Z,7.75
2019-05-02T00:36:41.124Z,7.74
2019-05-02T00:37:41.156Z,7.71
2019-05-02T00:38:41.112Z,7.71
2019-05-02T00:39:45.121Z,7.58
2019-05-02T00:40:41.109Z,7.71
2019-05-02T00:41:41.106Z,7.58
2019-05-02T00:42:41.133Z,7.55
2019-05-02T00:43:41.097Z,7.58
2019-05-02T00:44:42.018Z,7.59
2019-05-02T00:45:41.097Z,7.49
2019-05-02T00:46:41.091Z,7.49
2019-05-02T00:47:42.339Z,7.55
2019-05-02T00:48:41.090Z,7.50
2019-05-02T00:49:41.086Z,7.49
2019-05-02T00:50:45.400Z,7.47
2019-05-02T00:51:41.078Z,7.52
2019-05-02T00:52:41.102Z,7.47
2019-05-02T00:53:44.406Z,7.58
2019-05-02T00:54:41.066Z,7.62
2019-05-02T00:55:41.068Z,7.72
2019-05-02T00:56:44.212Z,7.81
2019-05-02T00:57:41.059Z,7.90
2019-05-02T00:58:41.090Z,7.90
2019-05-02T00:59:42.448Z,7.93
2019-05-02T01:00:41.046Z,7.96
2019-05-02T01:01:41.051Z,7.93
2019-05-02T01:02:41.817Z,7.93
2019-05-02T01:03:41.071Z,7.94
2019-05-02T01:04:41.041Z,7.90
2019-05-02T01:05:41.036Z,7.90
2019-05-02T01:06:44.753Z,7.89
2019-05-02T01:07:41.038Z,7.78
2019-05-02T01:08:41.062Z,7.90
2019-05-02T01:09:42.098Z,7.84
2019-05-02T01:10:41.030Z,7.89
2019-05-02T01:11:41.019Z,7.82
2019-05-02T01:12:44.399Z,7.85
2019-05-02T01:13:41.039Z,7.94
2019-05-02T01:14:41.013Z,7.97
2019-05-02T01:15:44.219Z,7.89
2019-05-02T01:16:41.004Z,7.93
2019-05-02T01:17:41.006Z,7.97
2019-05-02T01:18:42.450Z,7.92
2019-05-02T01:19:41.136Z,7.94
2019-05-02T01:20:41.000Z,7.97
2019-05-02T01:21:40.995Z,7.99
2019-05-02T01:22:40.990Z,7.93
2019-05-02T01:23:41.019Z,8.14
2019-05-02T01:24:41.650Z,8.11
2019-05-02T01:25:40.983Z,8.20
2019-05-02T01:26:40.976Z,8.20
2019-05-02T01:27:42.456Z,8.20
2019-05-02T01:28:40.999Z,8.12
2019-05-02T01:29:40.970Z,8.11
2019-05-02T01:30:42.369Z,7.99
2019-05-02T01:31:40.962Z,7.93
2019-05-02T01:32:40.957Z,7.99
2019-05-02T01:33:41.664Z,7.87
2019-05-02T01:34:40.982Z,7.89
2019-05-02T01:35:40.950Z,7.77
2019-05-02T01:36:41.225Z,7.78
2019-05-02T01:37:40.947Z,7.74
2019-05-02T01:38:40.945Z,7.62
2019-05-02T01:39:42.705Z,7.72
2019-05-02T01:40:40.938Z,7.67
2019-05-02T01:41:40.935Z,7.59
2019-05-02T01:42:44.528Z,7.52
2019-05-02T01:43:40.928Z,7.50
2019-05-02T01:44:40.958Z,7.49
2019-05-02T01:45:41.878Z,7.37
2019-05-02T01:46:40.924Z,7.40
2019-05-02T01:47:40.922Z,7.38
2019-05-02T01:48:45.808Z,7.34
2019-05-02T01:49:40.940Z,7.31
2019-05-02T01:50:40.909Z,7.29
2019-05-02T01:51:41.925Z,7.19
2019-05-02T01:52:40.996Z,7.20
2019-05-02T01:53:40.900Z,7.08
2019-05-02T01:54:45.567Z,7.02
2019-05-02T01:55:40.894Z,7.07
2019-05-02T01:56:40.888Z,7.09
2019-05-02T01:57:44.693Z,7.16
2019-05-02T01:58:40.884Z,7.23
2019-05-02T01:59:40.910Z,7.16
2019-05-02T02:00:44.697Z,7.20
2019-05-02T02:01:40.877Z,7.17
2019-05-02T02:02:40.875Z,7.08
2019-05-02T02:03:45.757Z,7.07
2019-05-02T02:04:40.897Z,7.12
2019-05-02T02:05:40.861Z,7.16
2019-05-02T02:06:43.365Z,7.05
2019-05-02T02:07:40.858Z,7.07
2019-05-02T02:08:40.853Z,7.02
2019-05-02T02:09:44.072Z,7.08
2019-05-02T02:10:43.726Z,7.09
2019-05-02T02:11:40.849Z,7.15
2019-05-02T02:12:42.979Z,7.16
2019-05-02T02:13:40.834Z,7.01
2019-05-02T02:14:40.866Z,6.99
2019-05-02T02:15:40.830Z,6.94
2019-05-02T02:16:40.827Z,6.99
2019-05-02T02:17:40.822Z,6.89
2019-05-02T02:18:40.822Z,6.91
2019-05-02T02:19:40.847Z,6.89
2019-05-02T02:20:45.215Z,6.79
2019-05-02T02:21:42.865Z,6.84
2019-05-02T02:22:41.099Z,6.95
2019-05-02T02:23:44.888Z,6.87
2019-05-02T02:24:40.827Z,6.84
2019-05-02T02:25:40.798Z,6.97
2019-05-02T02:26:43.666Z,7.01
2019-05-02T02:27:40.812Z,7.13
2019-05-02T02:28:40.819Z,7.07
2019-05-02T02:29:43.965Z,7.16
2019-05-02T02:30:40.784Z,7.23
2019-05-02T02:31:46.540Z,7.22
2019-05-02T02:32:40.778Z,7.26
2019-05-02T02:33:47.499Z,7.20
2019-05-02T02:34:40.806Z,7.29
2019-05-02T02:35:49.707Z,7.27
2019-05-02T02:36:40.767Z,7.37
2019-05-02T02:37:51.959Z,7.22
2019-05-02T02:38:40.756Z,7.22
2019-05-02T02:39:40.781Z,7.22
2019-05-02T02:40:40.753Z,7.22
2019-05-02T02:41:45.301Z,7.07
2019-05-02T02:42:40.743Z,6.97
2019-05-02T02:43:40.741Z,6.90
2019-05-02T02:44:41.966Z,7.01
2019-05-02T02:45:40.734Z,6.99
2019-05-02T02:46:40.730Z,7.04
2019-05-02T02:47:40.730Z,6.98
2019-05-02T02:48:42.703Z,7.12
2019-05-02T02:49:40.747Z,7.01
2019-05-02T02:50:43.136Z,7.01
2019-05-02T02:51:40.721Z,6.99
2019-05-02T02:52:44.600Z,6.98
2019-05-02T02:53:40.954Z,6.94
2019-05-02T02:54:43.215Z,6.99
2019-05-02T02:55:40.698Z,7.04
2019-05-02T02:56:40.961Z,7.02
2019-05-02T02:57:40.695Z,7.08
2019-05-02T02:58:45.691Z,7.05
2019-05-02T02:59:40.716Z,7.05
2019-05-02T03:00:41.454Z,7.05
2019-05-02T03:01:40.682Z,6.98
2019-05-02T03:02:47.770Z,6.98
2019-05-02T03:03:40.675Z,6.91
2019-05-02T03:04:44.218Z,6.77
2019-05-02T03:05:40.668Z,6.91
2019-05-02T03:06:44.807Z,6.83
2019-05-02T03:07:40.659Z,6.87
2019-05-02T03:08:46.110Z,6.83
2019-05-02T03:09:40.800Z,6.72
2019-05-02T03:10:45.114Z,6.87
2019-05-02T03:11:40.648Z,6.89
2019-05-02T03:12:41.598Z,6.81
2019-05-02T03:13:51.250Z,6.80
2019-05-02T03:14:46.626Z,6.80
2019-05-02T03:15:40.635Z,6.73
2019-05-02T03:16:46.909Z,6.80
2019-05-02T03:17:40.628Z,6.80
2019-05-02T03:18:43.346Z,6.84
2019-05-02T03:19:40.878Z,6.77
2019-05-02T03:20:42.040Z,6.73
2019-05-02T03:21:40.619Z,6.73
2019-05-02T03:22:41.783Z,6.62
2019-05-02T03:23:40.607Z,6.54
2019-05-02T03:24:44.149Z,6.51
2019-05-02T03:25:50.286Z,6.58
2019-05-02T03:26:40.594Z,6.53
2019-05-02T03:27:40.603Z,6.53
2019-05-02T03:28:40.642Z,6.53
2019-05-02T03:29:44.353Z,6.40
2019-05-02T03:30:40.607Z,6.35
2019-05-02T03:31:40.578Z,6.36
2019-05-02T03:32:40.599Z,6.32
2019-05-02T03:33:53.782Z,6.29
2019-05-02T03:34:52.995Z,6.30
2019-05-02T03:35:44.648Z,6.36
2019-05-02T03:36:40.595Z,6.35
2019-05-02T03:37:44.674Z,6.50
2019-05-02T03:38:41.339Z,6.44
2019-05-02T03:39:40.655Z,6.40
2019-05-02T03:40:41.374Z,6.58
2019-05-02T03:41:40.540Z,6.58
2019-05-02T03:42:44.747Z,6.46
2019-05-02T03:43:40.544Z,6.51
2019-05-02T03:44:40.564Z,6.46
2019-05-02T03:45:43.016Z,6.46
2019-05-02T03:46:40.523Z,6.48
2019-05-02T03:47:43.856Z,6.41
2019-05-02T03:48:41.345Z,6.51
2019-05-02T03:49:47.889Z,6.53
2019-05-02T03:50:40.516Z,6.66
2019-05-02T03:51:40.511Z,6.63
2019-05-02T03:52:43.552Z,6.72
2019-05-02T03:53:40.500Z,6.69
2019-05-02T03:54:48.922Z,6.69
2019-05-02T03:55:40.497Z,6.68
2019-05-02T03:56:44.608Z,6.61
2019-05-02T03:57:42.060Z,6.68
2019-05-02T03:58:40.484Z,6.68
2019-05-02T03:59:41.872Z,6.72
2019-05-02T04:00:40.481Z,6.87
2019-05-02T04:01:41.423Z,6.89
2019-05-02T04:02:40.464Z,6.97
2019-05-02T04:03:43.419Z,7.04
2019-05-02T04:04:40.495Z,7.12
2019-05-02T04:05:42.235Z,7.07
2019-05-02T04:06:40.456Z,7.19
2019-05-02T04:07:42.194Z,7.19
2019-05-02T04:08:40.453Z,7.16
2019-05-02T04:09:42.563Z,7.24
2019-05-02T04:10:40.444Z,7.27
2019-05-02T04:11:40.993Z,7.40
2019-05-02T04:12:40.442Z,7.42
2019-05-02T04:13:40.432Z,7.50
2019-05-02T04:14:40.473Z,7.60
2019-05-02T04:15:40.422Z,7.67
2019-05-02T04:16:40.418Z,7.82
2019-05-02T04:17:40.417Z,7.87
2019-05-02T04:18:40.424Z,7.89
2019-05-02T04:19:40.452Z,8.02
2019-05-02T04:20:43.626Z,8.11
2019-05-02T04:21:40.409Z,8.15
2019-05-02T04:22:42.935Z,8.21
2019-05-02T04:23:40.398Z,8.32
2019-05-02T04:24:40.428Z,8.37
2019-05-02T04:25:40.394Z,8.45
2019-05-02T04:26:52.805Z,8.45
2019-05-02T04:27:40.390Z,8.69
2019-05-02T04:28:45.665Z,8.58
2019-05-02T04:29:40.410Z,8.63
2019-05-02T04:30:45.265Z,8.68
2019-05-02T04:31:40.379Z,8.63
2019-05-02T04:32:42.939Z,8.71
2019-05-02T04:33:40.373Z,8.73
2019-05-02T04:34:40.402Z,8.68
2019-05-02T04:35:40.367Z,8.66
2019-05-02T04:36:40.362Z,8.73
2019-05-02T04:37:41.346Z,8.71
2019-05-02T04:38:46.888Z,8.73
2019-05-02T04:39:40.388Z,8.83
2019-05-02T04:40:41.785Z,8.96
2019-05-02T04:41:42.340Z,8.97
2019-05-02T04:42:40.351Z,8.99
2019-05-02T04:43:50.356Z,9.12
2019-05-02T04:44:52.978Z,9.24
2019-05-02T04:45:53.136Z,9.32
2019-05-02T04:46:40.341Z,9.42
2019-05-02T04:47:42.589Z,9.39
2019-05-02T04:48:48.138Z,9.42
2019-05-02T04:49:40.337Z,9.56
2019-05-02T04:50:40.339Z,9.66
2019-05-02T04:51:40.326Z,9.81
2019-05-02T04:52:51.219Z,10.06
2019-05-02T04:53:45.055Z,10.10
2019-05-02T04:54:40.316Z,10.21
2019-05-02T04:55:40.326Z,10.37
2019-05-02T04:56:49.643Z,10.44
2019-05-02T04:57:47.284Z,10.68
2019-05-02T04:58:40.804Z,10.84
2019-05-02T04:59:40.315Z,11.01
2019-05-02T05:00:45.099Z,11.13
2019-05-02T05:01:49.177Z,11.14
2019-05-02T05:02:40.332Z,11.29
2019-05-02T05:03:40.330Z,11.32
2019-05-02T05:04:46.120Z,11.32
2019-05-02T05:05:40.460Z,11.35
2019-05-02T05:06:40.917Z,11.46
2019-05-02T05:07:45.842Z,11.56
2019-05-02T05:08:41.668Z,11.49
2019-05-02T05:09:40.562Z,11.46
2019-05-02T05:10:41.486Z,11.49
2019-05-02T05:11:40.289Z,11.53
2019-05-02T05:12:41.793Z,11.67
2019-05-02T05:13:40.322Z,11.83
2019-05-02T05:14:43.324Z,11.80
2019-05-02T05:15:48.561Z,11.83
2019-05-02T05:16:40.282Z,12.02
2019-05-02T05:17:40.291Z,12.05
2019-05-02T05:18:43.928Z,12.24
2019-05-02T05:19:40.278Z,12.26
2019-05-02T05:20:40.607Z,12.26
2019-05-02T05:21:40.279Z,12.34
2019-05-02T05:22:44.384Z,12.31
2019-05-02T05:23:40.314Z,12.30
2019-05-02T05:24:42.311Z,12.44
2019-05-02T05:25:40.274Z,12.39
2019-05-02T05:26:42.922Z,12.48
2019-05-02T05:27:40.273Z,12.51
2019-05-02T05:28:44.221Z,12.67
2019-05-02T05:29:40.271Z,12.66
2019-05-02T05:30:45.152Z,12.56
2019-05-02T05:31:40.277Z,12.66
2019-05-02T05:32:40.292Z,12.74
2019-05-02T05:33:40.266Z,12.84
2019-05-02T05:34:40.268Z,12.74
2019-05-02T05:35:43.269Z,12.71
2019-05-02T05:36:40.267Z,12.59
2019-05-02T05:37:43.316Z,12.70
2019-05-02T05:38:40.706Z,12.63
2019-05-02T05:39:43.151Z,12.64
2019-05-02T05:40:40.260Z,12.74
2019-05-02T05:41:42.580Z,12.87
2019-05-02T05:42:40.285Z,12.79
2019-05-02T05:43:40.261Z,12.75
2019-05-02T05:44:40.268Z,12.89
2019-05-02T05:45:50.831Z,13.04
2019-05-02T05:46:42.499Z,13.15
2019-05-02T05:47:40.295Z,13.29
2019-05-02T05:48:40.842Z,13.46
2019-05-02T05:49:40.257Z,13.52
2019-05-02T05:50:41.516Z,13.70
2019-05-02T05:51:40.257Z,13.84
2019-05-02T05:52:42.349Z,13.74
2019-05-02T05:53:40.258Z,13.79
2019-05-02T05:54:42.034Z,13.83
2019-05-02T05:55:40.259Z,13.95
2019-05-02T05:56:43.230Z,13.87
2019-05-02T05:57:40.289Z,13.98
2019-05-02T05:58:50.426Z,14.02
2019-05-02T05:59:40.261Z,14.19
2019-05-02T06:00:40.257Z,14.32
2019-05-02T06:01:40.253Z,14.39
2019-05-02T06:02:52.695Z,14.46
2019-05-02T06:03:44.597Z,14.71
2019-05-02T06:04:40.258Z,14.71
2019-05-02T06:05:41.193Z,14.74
2019-05-02T06:06:40.258Z,14.69
2019-05-02T06:07:44.003Z,14.75
2019-05-02T06:08:40.288Z,14.74
2019-05-02T06:09:40.255Z,14.84
2019-05-02T06:10:43.909Z,14.68
2019-05-02T06:11:40.253Z,14.83
2019-05-02T06:12:40.264Z,14.81
2019-05-02T06:13:42.986Z,14.90
2019-05-02T06:14:40.259Z,14.88
2019-05-02T06:15:40.479Z,14.86
2019-05-02T06:16:40.262Z,14.74
2019-05-02T06:17:40.258Z,14.80
2019-05-02T06:18:41.869Z,14.91
2019-05-02T06:19:40.283Z,15.21
2019-05-02T06:20:40.264Z,15.30
2019-05-02T06:21:45.238Z,15.15
2019-05-02T06:22:40.254Z,14.90
2019-05-02T06:23:41.567Z,14.95
2019-05-02T06:24:40.434Z,15.05
2019-05-02T06:25:42.528Z,15.01
2019-05-02T06:26:40.263Z,14.95
2019-05-02T06:27:40.279Z,15.03
2019-05-02T06:28:41.526Z,15.12
2019-05-02T06:29:40.313Z,15.35
2019-05-02T06:30:40.267Z,15.06
2019-05-02T06:31:43.172Z,14.90
2019-05-02T06:32:40.271Z,14.78
2019-05-02T06:33:40.275Z,14.75
2019-05-02T06:34:46.589Z,14.90
2019-05-02T06:35:40.272Z,14.84
2019-05-02T06:36:40.273Z,15.06
2019-05-02T06:37:40.766Z,15.23
2019-05-02T06:38:40.276Z,15.51
2019-05-02T06:39:40.307Z,15.30
2019-05-02T06:40:44.722Z,14.94
2019-05-02T06:41:40.273Z,14.78
2019-05-02T06:42:40.279Z,14.35
2019-05-02T06:43:41.073Z,14.19
2019-05-02T06:44:40.309Z,13.94
2019-05-02T06:45:40.280Z,14.14
2019-05-02T06:46:40.264Z,14.32
2019-05-02T06:47:41.646Z,14.44
2019-05-02T06:48:40.853Z,14.80
2019-05-02T06:49:40.315Z,14.88
2019-05-02T06:50:40.590Z,15.20
2019-05-02T06:51:40.289Z,15.13
2019-05-02T06:52:40.289Z,15.06
2019-05-02T06:53:41.429Z,15.11
2019-05-02T06:54:40.324Z,15.38
2019-05-02T06:55:40.295Z,15.51
2019-05-02T06:56:43.007Z,15.61
2019-05-02T06:57:40.292Z,15.76
2019-05-02T06:58:41.934Z,15.74
2019-05-02T06:59:40.320Z,15.75
2019-05-02T07:00:56.518Z,15.84
2019-05-02T07:01:40.302Z,16.18
2019-05-02T07:02:40.302Z,16.34
2019-05-02T07:03:41.299Z,16.44
2019-05-02T07:04:40.338Z,16.41
2019-05-02T07:05:40.306Z,16.59
2019-05-02T07:06:50.092Z,16.38
2019-05-02T07:07:40.312Z,16.52
2019-05-02T07:08:40.396Z,16.20
2019-05-02T07:09:41.591Z,16.31
2019-05-02T07:10:44.965Z,15.99
2019-05-02T07:11:40.974Z,16.06
2019-05-02T07:12:40.322Z,16.53
2019-05-02T07:13:42.124Z,16.48
2019-05-02T07:14:40.362Z,16.53
2019-05-02T07:15:40.535Z,16.40
2019-05-02T07:16:40.331Z,16.33
2019-05-02T07:17:40.337Z,16.31
2019-05-02T07:18:42.131Z,16.71
2019-05-02T07:19:40.335Z,16.99
2019-05-02T07:20:42.349Z,17.29
2019-05-02T07:21:40.346Z,17.29
2019-05-02T07:22:40.821Z,17.03
2019-05-02T07:23:40.349Z,17.18
2019-05-02T07:24:40.353Z,17.28
2019-05-02T07:25:44.013Z,17.07
2019-05-02T07:26:40.356Z,17.36
2019-05-02T07:27:40.359Z,17.64
2019-05-02T07:28:45.473Z,17.25
2019-05-02T07:29:40.364Z,17.50
2019-05-02T07:30:40.399Z,17.57
2019-05-02T07:31:42.944Z,17.78
2019-05-02T07:32:40.376Z,17.79
2019-05-02T07:33:40.378Z,18.03
2019-05-02T07:34:44.291Z,18.02
2019-05-02T07:35:40.385Z,17.82
2019-05-02T07:36:40.392Z,17.15
2019-05-02T07:37:44.054Z,16.92
2019-05-02T07:38:40.395Z,16.49
2019-05-02T07:39:40.974Z,16.55
2019-05-02T07:40:40.432Z,16.85
2019-05-02T07:41:40.409Z,17.23
2019-05-02T07:42:41.822Z,17.48
2019-05-02T07:43:40.416Z,17.57
2019-05-02T07:44:40.423Z,17.62
2019-05-02T07:45:45.198Z,17.88
2019-05-02T07:46:51.224Z,17.95
2019-05-02T07:47:42.380Z,17.84
2019-05-02T07:48:43.414Z,18.02
2019-05-02T07:49:40.438Z,18.33
2019-05-02T07:50:41.144Z,18.31
2019-05-02T07:51:40.442Z,18.02
2019-05-02T07:52:41.208Z,18.18
2019-05-02T07:53:44.454Z,18.33
2019-05-02T07:54:40.460Z,18.54
2019-05-02T07:55:42.384Z,18.62
2019-05-02T07:56:40.463Z,19.13
2019-05-02T07:57:40.467Z,19.14
2019-05-02T07:58:47.027Z,19.15
2019-05-02T07:59:40.478Z,19.33
2019-05-02T08:00:40.507Z,19.43
2019-05-02T08:01:40.483Z,19.84
2019-05-02T08:02:40.494Z,19.86
2019-05-02T08:03:40.499Z,19.83
2019-05-02T08:04:43.586Z,19.91
2019-05-02T08:05:40.539Z,19.25
2019-05-02T08:06:44.664Z,19.48
2019-05-02T08:07:40.528Z,19.54
2019-05-02T08:08:40.524Z,19.72
2019-05-02T08:09:43.995Z,19.75
2019-05-02T08:10:40.563Z,19.87
2019-05-02T08:11:40.541Z,20.00
2019-05-02T08:12:40.553Z,20.20
2019-05-02T08:13:40.556Z,20.33
2019-05-02T08:14:40.561Z,20.38
2019-05-02T08:15:40.597Z,20.64
2019-05-02T08:16:40.579Z,20.61
2019-05-02T08:17:40.585Z,20.69
2019-05-02T08:18:40.585Z,20.46
2019-05-02T08:19:41.695Z,19.95
2019-05-02T08:20:40.628Z,18.58
2019-05-02T08:21:40.606Z,17.57
2019-05-02T08:22:44.029Z,18.12
2019-05-02T08:23:40.623Z,18.52
2019-05-02T08:24:40.628Z,19.11
2019-05-02T08:25:41.509Z,19.79
2019-05-02T08:26:40.640Z,20.15
2019-05-02T08:27:40.655Z,20.43
2019-05-02T08:28:40.657Z,20.62
2019-05-02T08:29:40.661Z,19.90
2019-05-02T08:30:41.871Z,19.93
2019-05-02T08:31:40.681Z,20.27
2019-05-02T08:32:40.685Z,20.43
2019-05-02T08:33:40.693Z,20.31
2019-05-02T08:34:40.704Z,20.49
2019-05-02T08:35:40.739Z,20.56
2019-05-02T08:36:40.717Z,20.31
2019-05-02T08:37:41.464Z,20.50
2019-05-02T08:38:40.737Z,20.77
2019-05-02T08:39:40.745Z,20.84
2019-05-02T08:40:42.412Z,21.09
2019-05-02T08:41:40.757Z,21.13
2019-05-02T08:42:40.767Z,20.72
2019-05-02T08:43:44.896Z,20.93
2019-05-02T08:44:50.706Z,21.20
2019-05-02T08:45:40.823Z,21.35
2019-05-02T08:46:40.798Z,21.23
2019-05-02T08:47:40.806Z,21.04
2019-05-02T08:48:41.849Z,20.42
2019-05-02T08:49:42.515Z,20.38
2019-05-02T08:50:40.866Z,20.38
2019-05-02T08:51:41.592Z,20.50
2019-05-02T08:52:42.202Z,20.89
2019-05-02T08:53:40.865Z,21.13
2019-05-02T08:54:40.878Z,21.39
2019-05-02T08:55:41.287Z,21.36
2019-05-02T08:56:40.921Z,21.45
2019-05-02T08:57:40.901Z,21.60
2019-05-02T08:58:44.879Z,21.81
2019-05-02T08:59:41.014Z,21.97
2019-05-02T09:00:40.955Z,21.95
2019-05-02T09:01:44.770Z,22.06
2019-05-02T09:02:42.017Z,22.13
2019-05-02T09:03:54.721Z,22.13
2019-05-02T09:04:40.977Z,21.91
2019-05-02T09:05:45.561Z,21.53
2019-05-02T09:06:40.988Z,21.42
2019-05-02T09:07:42.946Z,21.63
2019-05-02T09:08:41.008Z,22.04
2019-05-02T09:09:41.033Z,22.16
2019-05-02T09:10:42.214Z,22.13
2019-05-02T09:11:41.506Z,22.09
2019-05-02T09:12:44.311Z,22.27
2019-05-02T09:13:42.210Z,22.09
2019-05-02T09:14:42.606Z,21.98
2019-05-02T09:15:49.766Z,21.63
2019-05-02T09:16:42.745Z,21.42
2019-05-02T09:17:44.637Z,20.95
2019-05-02T09:18:50.098Z,20.64
2019-05-02T09:19:42.934Z,20.68
2019-05-02T09:20:42.340Z,20.93
2019-05-02T09:21:42.917Z,21.11
2019-05-02T09:22:41.864Z,21.17
2019-05-02T09:23:42.090Z,21.39
2019-05-02T09:24:43.068Z,20.42
2019-05-02T09:25:42.968Z,20.24
2019-05-02T09:26:42.577Z,20.33
2019-05-02T09:27:42.054Z,20.56
2019-05-02T09:28:42.271Z,20.76
2019-05-02T09:29:42.474Z,21.27
2019-05-02T09:30:41.951Z,21.81
2019-05-02T09:31:44.354Z,22.14
2019-05-02T09:32:41.882Z,22.34
2019-05-02T09:33:45.259Z,22.39
2019-05-02T09:34:42.357Z,22.31
2019-05-02T09:35:42.152Z,22.43
2019-05-02T09:36:41.825Z,22.38
2019-05-02T09:37:41.859Z,22.49
2019-05-02T09:38:42.497Z,22.43
2019-05-02T09:39:41.603Z,22.31
2019-05-02T09:40:42.623Z,22.47
2019-05-02T09:41:41.927Z,22.43
2019-05-02T09:42:42.955Z,22.77
2019-05-02T09:43:42.615Z,22.77
2019-05-02T09:44:42.588Z,22.54
2019-05-02T09:45:43.824Z,22.46
2019-05-02T09:46:42.828Z,22.43
2019-05-02T09:47:55.449Z,22.41
2019-05-02T09:48:42.642Z,22.32
2019-05-02T09:49:48.924Z,22.43
2019-05-02T09:50:42.199Z,22.27
2019-05-02T09:51:42.044Z,22.44
2019-05-02T09:52:44.187Z,22.44
2019-05-02T09:53:43.198Z,22.38
2019-05-02T09:54:44.557Z,22.62
2019-05-02T09:55:49.560Z,22.94
2019-05-02T09:56:43.061Z,22.87
2019-05-02T09:57:42.784Z,22.43
2019-05-02T09:58:42.040Z,22.52
2019-05-02T09:59:43.155Z,22.68
2019-05-02T10:00:41.933Z,22.83
2019-05-02T10:01:42.138Z,22.93
2019-05-02T10:02:41.916Z,23.04
2019-05-02T10:03:42.335Z,23.01
2019-05-02T10:04:44.037Z,23.29
2019-05-02T10:05:43.099Z,23.23
2019-05-02T10:06:42.939Z,23.01
2019-05-02T10:07:42.009Z,23.09
2019-05-02T10:08:43.522Z,23.01
2019-05-02T10:09:42.421Z,23.07
2019-05-02T10:10:44.896Z,23.23
2019-05-02T10:11:41.883Z,23.64
2019-05-02T10:12:42.702Z,23.75
2019-05-02T10:13:42.441Z,23.80
2019-05-02T10:14:42.186Z,23.71
2019-05-02T10:15:42.211Z,23.52
2019-05-02T10:16:42.616Z,23.40
2019-05-02T10:17:42.872Z,23.27
2019-05-02T10:18:43.128Z,23.20
2019-05-02T10:19:48.804Z,23.45
2019-05-02T10:20:42.060Z,23.64
2019-05-02T10:21:42.248Z,23.71
2019-05-02T10:22:43.735Z,23.75
2019-05-02T10:23:42.734Z,23.97
2019-05-02T10:24:42.545Z,24.29
2019-05-02T10:25:46.620Z,24.37
2019-05-02T10:26:42.011Z,24.17
2019-05-02T10:27:45.963Z,23.89
2019-05-02T10:28:49.280Z,23.61
2019-05-02T10:29:41.997Z,23.24
2019-05-02T10:30:42.637Z,23.22
2019-05-02T10:31:42.312Z,23.08
2019-05-02T10:32:42.751Z,23.43
2019-05-02T10:33:42.914Z,23.89
2019-05-02T10:34:42.279Z,23.89
2019-05-02T10:35:43.334Z,23.62
2019-05-02T10:36:44.890Z,23.82
2019-05-02T10:37:43.071Z,24.23
2019-05-02T10:38:42.715Z,24.50
2019-05-02T10:39:42.369Z,24.59
2019-05-02T10:40:42.538Z,24.38
2019-05-02T10:41:43.777Z,23.61
2019-05-02T10:42:42.171Z,23.22
2019-05-02T10:43:42.435Z,23.52
2019-05-02T10:44:42.661Z,24.01
2019-05-02T10:45:42.639Z,24.17
2019-05-02T10:46:42.230Z,24.29
2019-05-02T10:47:42.401Z,24.49
2019-05-02T10:48:42.336Z,24.49
2019-05-02T10:49:42.695Z,24.69
2019-05-02T10:50:42.320Z,24.45
2019-05-02T10:51:49.042Z,24.59
2019-05-02T10:52:42.556Z,24.76
2019-05-02T10:53:42.502Z,24.79
2019-05-02T10:54:42.347Z,24.88
2019-05-02T10:55:42.643Z,24.49
2019-05-02T10:56:42.441Z,24.37
2019-05-02T10:57:42.393Z,24.49
2019-05-02T10:58:42.678Z,24.76
2019-05-02T10:59:42.454Z,24.56
2019-05-02T11:00:45.280Z,24.38
2019-05-02T11:01:42.483Z,24.22
2019-05-02T11:02:42.498Z,24.41
2019-05-02T11:03:43.774Z,24.64
2019-05-02T11:04:42.507Z,24.75
2019-05-02T11:05:42.506Z,24.98
2019-05-02T11:06:46.084Z,24.92
2019-05-02T11:07:42.551Z,25.05
2019-05-02T11:08:46.013Z,25.24
2019-05-02T11:09:42.576Z,25.54
2019-05-02T11:10:42.595Z,25.87
2019-05-02T11:11:42.657Z,26.11
2019-05-02T11:12:46.964Z,26.39
2019-05-02T11:13:42.673Z,26.15
2019-05-02T11:14:42.662Z,25.86
2019-05-02T11:15:42.675Z,25.34
2019-05-02T11:16:42.720Z,25.62
2019-05-02T11:17:42.704Z,25.94
2019-05-02T11:18:45.223Z,26.20
2019-05-02T11:19:42.740Z,25.77
2019-05-02T11:20:42.760Z,25.52
2019-05-02T11:21:55.807Z,25.86
2019-05-02T11:22:42.880Z,26.01
2019-05-02T11:23:42.835Z,26.11
2019-05-02T11:24:42.822Z,25.83
2019-05-02T11:25:42.838Z,25.27
2019-05-02T11:26:42.987Z,25.35
2019-05-02T11:27:42.869Z,25.65
2019-05-02T11:28:42.902Z,25.47
2019-05-02T11:29:42.903Z,25.20
2019-05-02T11:30:42.919Z,25.49
2019-05-02T11:31:42.961Z,25.46
2019-05-02T11:32:42.952Z,24.98
2019-05-02T11:33:42.962Z,25.02
2019-05-02T11:34:42.983Z,24.87
2019-05-02T11:35:49.082Z,24.73
2019-05-02T11:36:43.039Z,24.88
2019-05-02T11:37:43.030Z,25.30
2019-05-02T11:38:45.222Z,25.47
2019-05-02T11:39:50.021Z,25.10
2019-05-02T11:40:43.077Z,25.00
2019-05-02T11:41:43.115Z,24.50
2019-05-02T11:42:43.109Z,24.50
2019-05-02T11:43:44.967Z,24.08
2019-05-02T11:44:43.137Z,23.71
2019-05-02T11:45:43.152Z,23.76
2019-05-02T11:46:46.878Z,23.61
2019-05-02T11:47:43.179Z,23.45
2019-05-02T11:48:55.603Z,23.39
2019-05-02T11:49:46.834Z,23.82
2019-05-02T11:50:43.228Z,24.39
2019-05-02T11:51:47.132Z,24.54
2019-05-02T11:52:43.252Z,24.34
2019-05-02T11:53:43.269Z,23.97
2019-05-02T11:54:44.678Z,23.27
2019-05-02T11:55:43.847Z,22.60
2019-05-02T11:56:48.851Z,22.32
2019-05-02T11:57:43.325Z,22.16
2019-05-02T11:58:48.019Z,22.07
2019-05-02T11:59:43.351Z,22.56
2019-05-02T12:00:48.419Z,23.20
2019-05-02T12:01:56.217Z,23.46
2019-05-02T12:02:43.385Z,23.57
2019-05-02T12:03:43.446Z,24.07
2019-05-02T12:04:47.240Z,24.61
2019-05-02T12:05:43.451Z,25.13
2019-05-02T12:06:43.436Z,25.28
2019-05-02T12:07:43.448Z,25.30
2019-05-02T12:08:45.000Z,24.98
2019-05-02T12:09:50.783Z,25.06
2019-05-02T12:10:43.511Z,24.14
2019-05-02T12:11:47.331Z,24.08
2019-05-02T12:12:43.519Z,23.85
2019-05-02T12:13:47.367Z,23.80
2019-05-02T12:14:43.580Z,24.01
2019-05-02T12:15:44.294Z,23.77
2019-05-02T12:16:43.568Z,23.89
2019-05-02T12:17:43.586Z,24.10
2019-05-02T12:18:43.600Z,24.00
2019-05-02T12:19:43.650Z,23.89
2019-05-02T12:20:43.662Z,23.46
2019-05-02T12:21:43.761Z,23.32
2019-05-02T12:22:43.664Z,23.49
2019-05-02T12:23:43.689Z,23.65
2019-05-02T12:24:45.311Z,23.86
2019-05-02T12:25:43.738Z,23.79
2019-05-02T12:26:46.405Z,23.89
2019-05-02T12:27:43.733Z,24.19
2019-05-02T12:28:43.747Z,24.05
2019-05-02T12:29:43.790Z,23.61
2019-05-02T12:30:43.801Z,23.04
2019-05-02T12:31:47.268Z,22.67
2019-05-02T12:32:43.806Z,22.46
2019-05-02T12:33:43.815Z,22.23
2019-05-02T12:34:43.859Z,21.91
2019-05-02T12:35:43.902Z,22.23
2019-05-02T12:36:43.860Z,22.47
2019-05-02T12:37:47.026Z,23.02
2019-05-02T12:38:43.883Z,22.96
2019-05-02T12:39:43.922Z,22.71
2019-05-02T12:40:43.941Z,22.31
2019-05-02T12:41:44.080Z,21.91
2019-05-02T12:42:43.951Z,21.74
2019-05-02T12:43:43.944Z,21.42
2019-05-02T12:44:43.986Z,20.98
2019-05-02T12:45:43.997Z,20.71
2019-05-02T12:46:43.977Z,20.58
2019-05-02T12:47:43.992Z,20.43
2019-05-02T12:48:44.004Z,20.46
2019-05-02T12:49:44.044Z,20.34
2019-05-02T12:50:44.053Z,20.56
2019-05-02T12:51:44.033Z,20.50
2019-05-02T12:52:44.049Z,20.81
2019-05-02T12:53:44.049Z,21.30
2019-05-02T12:54:44.094Z,21.81
2019-05-02T12:55:44.110Z,22.12
2019-05-02T12:56:44.086Z,22.54
2019-05-02T12:57:44.098Z,23.05
2019-05-02T12:58:44.103Z,23.35
2019-05-02T12:59:44.116Z,23.19
2019-05-02T13:00:44.147Z,23.39
2019-05-02T13:01:44.136Z,23.46
2019-05-02T13:02:44.147Z,23.62